Airfield :







YOU CAN JOIN US ON...

 
LOGIN :

Register | Disclaimer

   EN    FR    IT 

 









Legend :    VFR   Marginal VFR   IFR   Intensive IFR   Very Intensive IFR
Visi :
Ceiling :
>= 8 km
>= 3000ft
5 to 8 km
1000 to 3000 ft
1500m to 5 km
500 to 1000 ft
800 to 1500m
200 to 500 ft
< 800m
< 200 ft
Symbols :   Thunderstorms  Fog  Heavy snow  Heavy precipitations  Wind > 20 kt






- Airport Elevation : 90 ft
- IATA code : YHU


CYHU - Montréal Saint-Hubert

CURRENT METAR :
  • 040800Z AUTO 29018G24KT 9SM BKN045 M02/M10 A3010 RMK SLP195

EXPIRED METARs :
  • 040700Z AUTO 29017G24KT 9SM OVC043 M01/M09 A3007 RMK SLP187
  • 040600Z AUTO 29019G30KT 9SM OVC041 M00/M07 A3003 RMK SLP173

TAF TAF CYHU
Valid from the 04 at 06:00 until the 05 at 06:00 UTC


040540Z 0406/0506 28015G25KT P6SM SCT030
BECMG 0407/0409 28012G22KT
FM041100 29010KT P6SM SKC
BECMG 0416/0418 21008KT
FM042300 17005KT 3SM -SHSN SCT020 BKN040
PROB30 0500/0502 1SM -SHSN VV008
FM050300 23010G20KT P6SM BKN040 RMK FCST BASED ON AUTO OBS. NXT FCST BY 041200Z
CZUL FIR / North America



MET'MAP, your aeronautical weather chart ! - Copyright ORBIFLY December 2007 - Disclaimer

ORBIFLY MET'MAP TEAM :

Programming & Development : Alexandra Zaïnal
Original concept : Baudouin d'Aumeries
Technical & hardware support : Manuel Goepfert
Assistance : Marc-Olivier Méhu




SOURCES & CREDITS :

   NOAA